createdAt,value
2022-09-01T00:02:00.213Z,53.20
2022-09-01T00:04:26.765Z,53.50
2022-09-01T00:06:53.267Z,53.60
2022-09-01T00:09:19.737Z,53.70
2022-09-01T00:11:50.347Z,53.90
2022-09-01T00:14:29.546Z,54.10
2022-09-01T00:16:57.382Z,54.20
2022-09-01T00:19:24.070Z,54.30
2022-09-01T00:21:50.528Z,54.30
2022-09-01T00:24:53.216Z,54.30
2022-09-01T00:27:10.326Z,54.60
2022-09-01T00:29:36.805Z,54.70
2022-09-01T00:32:03.276Z,54.90
2022-09-01T00:34:29.795Z,54.90
2022-09-01T00:36:56.274Z,55.00
2022-09-01T00:39:22.731Z,55.20
2022-09-01T00:41:49.199Z,55.00
2022-09-01T00:44:15.659Z,54.90
2022-09-01T00:46:49.673Z,55.10
2022-09-01T00:49:16.809Z,55.40
2022-09-01T00:51:43.286Z,55.50
2022-09-01T00:54:09.745Z,55.50
2022-09-01T00:56:36.212Z,55.60
2022-09-01T00:59:02.694Z,55.60
2022-09-01T01:01:29.206Z,55.60
2022-09-01T01:03:55.686Z,55.70
2022-09-01T01:06:22.137Z,55.70
2022-09-01T01:08:48.605Z,55.70
2022-09-01T01:11:15.071Z,55.70
2022-09-01T01:13:42.393Z,55.80
2022-09-01T01:16:08.857Z,55.80
2022-09-01T01:18:35.336Z,55.80
2022-09-01T01:21:01.797Z,55.90
2022-09-01T01:23:28.273Z,56.10
2022-09-01T01:25:54.744Z,56.30
2022-09-01T01:28:21.362Z,56.40
2022-09-01T01:30:48.055Z,56.30
2022-09-01T01:33:14.536Z,56.40
2022-09-01T01:35:42.581Z,56.40
2022-09-01T01:38:09.034Z,56.40
2022-09-01T01:40:35.566Z,56.50
2022-09-01T01:43:02.052Z,56.50
2022-09-01T01:45:28.526Z,56.60
2022-09-01T01:47:54.992Z,56.80
2022-09-01T01:50:21.470Z,56.70
2022-09-01T01:52:47.938Z,56.90
2022-09-01T01:55:19.656Z,56.80
2022-09-01T01:57:46.120Z,56.70
2022-09-01T02:00:12.591Z,56.90
2022-09-01T02:02:39.127Z,56.80
2022-09-01T02:05:05.878Z,56.80
2022-09-01T02:07:32.342Z,56.80
2022-09-01T02:10:00.302Z,56.70
2022-09-01T02:12:26.760Z,56.70
2022-09-01T02:14:53.232Z,56.70
2022-09-01T02:17:19.685Z,56.70
2022-09-01T02:19:46.170Z,56.80
2022-09-01T02:22:12.633Z,56.70
2022-09-01T02:24:39.097Z,57.00
2022-09-01T02:27:05.577Z,56.90
2022-09-01T02:29:35.099Z,57.10
2022-09-01T02:32:09.925Z,57.10
2022-09-01T02:34:36.374Z,57.10
2022-09-01T02:37:02.846Z,57.00
2022-09-01T02:39:29.303Z,57.10
2022-09-01T02:41:55.778Z,57.20
2022-09-01T02:44:22.235Z,57.30
2022-09-01T02:46:48.699Z,57.30
2022-09-01T02:49:15.162Z,57.20
2022-09-01T02:51:41.667Z,57.10
2022-09-01T02:54:08.128Z,57.10
2022-09-01T02:56:34.621Z,57.20
2022-09-01T02:59:01.097Z,57.10
2022-09-01T03:01:27.672Z,57.00
2022-09-01T03:03:54.191Z,57.00
2022-09-01T03:06:20.660Z,57.00
2022-09-01T03:08:47.122Z,57.00
2022-09-01T03:11:13.608Z,57.00
2022-09-01T03:13:40.089Z,56.90
2022-09-01T03:16:06.607Z,56.90
2022-09-01T03:18:33.113Z,57.00
2022-09-01T03:20:59.585Z,57.00
2022-09-01T03:23:26.043Z,57.00
2022-09-01T03:25:52.551Z,57.00
2022-09-01T03:28:19.252Z,57.00
2022-09-01T03:30:45.819Z,56.90
2022-09-01T03:33:12.311Z,56.90
2022-09-01T03:35:38.780Z,56.80
2022-09-01T03:38:05.257Z,56.90
2022-09-01T03:40:31.742Z,56.90
2022-09-01T03:42:58.218Z,57.00
2022-09-01T03:45:24.720Z,56.90
2022-09-01T03:47:51.213Z,56.80
2022-09-01T03:50:17.680Z,56.80
2022-09-01T03:52:44.150Z,56.70
2022-09-01T03:55:10.608Z,56.70
2022-09-01T03:57:37.081Z,56.70
2022-09-01T04:00:04.480Z,56.70
2022-09-01T04:02:31.584Z,56.70
2022-09-01T04:04:58.097Z,56.70
2022-09-01T04:07:24.574Z,56.70
2022-09-01T04:09:51.034Z,56.70
2022-09-01T04:12:17.502Z,56.70
2022-09-01T04:14:43.969Z,56.60
2022-09-01T04:17:10.453Z,56.70
2022-09-01T04:19:37.184Z,56.80
2022-09-01T04:22:03.736Z,56.90
2022-09-01T04:24:30.208Z,57.00
2022-09-01T04:26:56.666Z,56.90
2022-09-01T04:29:23.140Z,56.90
2022-09-01T04:31:49.642Z,57.00
2022-09-01T04:34:16.156Z,56.90
2022-09-01T04:36:42.615Z,57.00
2022-09-01T04:39:10.090Z,57.00
2022-09-01T06:21:24.094Z,56.80
2022-09-01T06:23:50.558Z,56.70
2022-09-01T06:26:17.037Z,56.60
2022-09-01T06:28:43.505Z,56.50
2022-09-01T06:31:10.022Z,56.50
2022-09-01T06:33:36.533Z,56.40
2022-09-01T06:36:03.009Z,56.50
2022-09-01T06:38:29.474Z,56.50
2022-09-01T06:40:56.010Z,56.50
2022-09-01T06:43:22.691Z,56.50
2022-09-01T06:45:49.345Z,56.40
2022-09-01T06:48:15.820Z,56.40
2022-09-01T06:53:32.487Z,56.30
2022-09-01T06:55:59.410Z,56.20
2022-09-01T06:58:25.878Z,56.10
2022-09-01T07:00:52.353Z,56.10
2022-09-01T07:03:19.585Z,56.00
2022-09-01T07:06:02.326Z,56.00
2022-09-01T07:08:29.200Z,55.90
2022-09-01T07:14:15.242Z,56.10
2022-09-01T07:16:31.854Z,56.10
2022-09-01T07:18:59.715Z,55.90
2022-09-01T07:24:12.637Z,55.80
2022-09-01T07:26:46.716Z,55.80
2022-09-01T07:29:13.611Z,55.70
2022-09-01T07:34:41.944Z,55.70
2022-09-01T07:38:46.982Z,55.60
2022-09-01T07:45:32.170Z,55.20
2022-09-01T07:47:58.702Z,55.70
2022-09-01T07:50:39.782Z,55.00
2022-09-01T07:53:08.079Z,54.90
2022-09-01T07:55:34.552Z,54.80
2022-09-01T07:58:01.011Z,54.80
2022-09-01T08:00:30.165Z,54.70
2022-09-01T08:02:58.057Z,54.30
2022-09-01T08:05:24.593Z,54.20
2022-09-01T08:07:52.221Z,54.10
2022-09-01T08:10:20.202Z,54.40
2022-09-01T08:12:47.008Z,53.60
2022-09-01T08:18:08.884Z,53.20
2022-09-01T08:20:35.425Z,52.70
2022-09-01T08:23:01.892Z,52.20
2022-09-01T08:25:28.360Z,51.90
2022-09-01T08:28:01.926Z,51.60
2022-09-01T08:30:28.429Z,51.20
2022-09-01T08:32:54.901Z,50.90
2022-09-01T08:35:21.380Z,50.90
2022-09-01T08:37:47.858Z,49.80
2022-09-01T08:40:14.369Z,49.40
2022-09-01T08:42:40.856Z,48.80
2022-09-01T08:45:07.326Z,48.10
2022-09-01T08:47:49.251Z,47.90
2022-09-01T08:50:20.233Z,46.90
2022-09-01T08:52:46.710Z,46.10
2022-09-01T08:55:13.185Z,45.60
2022-09-01T08:57:39.662Z,45.50
2022-09-01T09:00:06.121Z,45.40
2022-09-01T09:02:32.608Z,45.10
2022-09-01T09:04:59.081Z,44.40
2022-09-01T09:07:25.545Z,43.60
2022-09-01T09:09:54.203Z,42.90
2022-09-01T09:12:20.897Z,42.20
2022-09-01T09:14:47.350Z,41.70
2022-09-01T09:17:13.821Z,41.50
2022-09-01T09:19:40.276Z,41.50
2022-09-01T09:22:06.750Z,41.80
2022-09-01T09:24:39.281Z,41.70
2022-09-01T09:27:07.045Z,41.70
2022-09-01T09:29:36.142Z,41.50
2022-09-01T09:32:02.618Z,41.00
2022-09-01T09:34:29.086Z,41.00
2022-09-01T09:36:57.354Z,40.50
2022-09-01T09:39:23.933Z,40.30
2022-09-01T09:41:50.707Z,40.10
2022-09-01T09:44:17.221Z,39.80
2022-09-01T09:46:44.117Z,39.10
2022-09-01T09:49:10.819Z,38.50
2022-09-01T09:51:37.273Z,38.40
2022-09-01T09:54:03.745Z,38.90
2022-09-01T09:56:30.201Z,39.20
2022-09-01T09:58:59.581Z,38.90
2022-09-01T10:01:26.123Z,39.10
2022-09-01T10:03:52.781Z,38.70
2022-09-01T10:06:19.263Z,38.40
2022-09-01T10:08:46.178Z,38.40
2022-09-01T10:11:12.955Z,38.20
2022-09-01T10:13:39.450Z,36.60
2022-09-01T10:16:07.931Z,36.40
2022-09-01T10:18:36.084Z,35.60
2022-09-01T10:21:02.729Z,36.00
2022-09-01T10:23:31.357Z,35.40
2022-09-01T10:25:58.089Z,35.80
2022-09-01T10:28:25.358Z,35.70
2022-09-01T10:30:52.336Z,35.10
2022-09-01T10:33:20.779Z,34.80
2022-09-01T10:35:48.327Z,35.50
2022-09-01T10:38:14.825Z,35.50
2022-09-01T10:40:43.342Z,34.50
2022-09-01T10:43:12.400Z,34.40
2022-09-01T10:45:39.316Z,34.70
2022-09-01T10:48:05.808Z,33.80
2022-09-01T10:50:35.402Z,33.80
2022-09-01T10:53:02.194Z,33.80
2022-09-01T10:55:28.697Z,33.50
2022-09-01T10:57:55.902Z,33.30
2022-09-01T11:00:38.079Z,33.40
2022-09-01T11:03:29.917Z,32.80
2022-09-01T11:05:52.731Z,32.70
2022-09-01T11:08:19.280Z,32.70
2022-09-01T11:10:47.430Z,31.90
2022-09-01T11:13:15.830Z,31.10
2022-09-01T11:15:42.320Z,30.90
2022-09-01T11:18:08.822Z,30.80
2022-09-01T11:20:35.281Z,30.90
2022-09-01T11:23:03.454Z,30.80
2022-09-01T11:25:38.785Z,31.00
2022-09-01T11:28:05.500Z,31.00
2022-09-01T11:30:31.959Z,30.70
2022-09-01T11:32:58.422Z,30.40
2022-09-01T11:35:24.976Z,30.60
2022-09-01T11:37:51.431Z,30.50
2022-09-01T11:40:18.849Z,30.50
2022-09-01T11:42:46.714Z,30.60
2022-09-01T11:45:20.571Z,30.10
2022-09-01T11:47:48.425Z,30.10
2022-09-01T11:50:14.893Z,30.30
2022-09-01T11:52:41.359Z,30.00
2022-09-01T11:55:07.842Z,30.10
2022-09-01T11:57:34.324Z,30.10
2022-09-01T12:00:00.804Z,29.90
2022-09-01T12:02:27.335Z,29.50
2022-09-01T12:04:53.881Z,29.80
2022-09-01T12:07:20.348Z,29.50
2022-09-01T12:09:46.828Z,29.60
2022-09-01T12:12:13.329Z,30.00
2022-09-01T12:15:04.429Z,30.00
2022-09-01T12:17:26.306Z,29.50
2022-09-01T12:19:52.781Z,29.80
2022-09-01T12:22:19.255Z,29.80
2022-09-01T12:24:45.719Z,29.90
2022-09-01T12:27:12.195Z,29.70
2022-09-01T12:29:39.012Z,29.50
2022-09-01T12:32:05.550Z,29.40
2022-09-01T12:34:32.055Z,29.20
2022-09-01T12:36:58.531Z,29.10
2022-09-01T12:39:25.003Z,29.20
2022-09-01T12:41:51.484Z,29.20
2022-09-01T12:44:20.898Z,29.30
2022-09-01T12:46:50.593Z,29.30
2022-09-01T12:49:17.059Z,29.50
2022-09-01T12:51:43.819Z,29.40
2022-09-01T12:54:10.364Z,29.30
2022-09-01T12:56:36.837Z,29.10
2022-09-01T12:59:03.303Z,28.60
2022-09-01T13:01:29.896Z,28.80
2022-09-01T13:03:56.778Z,28.60
2022-09-01T13:06:23.363Z,28.80
2022-09-01T13:08:49.849Z,28.90
2022-09-01T13:11:16.333Z,28.80
2022-09-01T13:13:43.054Z,29.00
2022-09-01T13:16:09.601Z,29.10
2022-09-01T13:19:10.335Z,29.00
2022-09-01T13:21:22.576Z,29.00
2022-09-01T13:23:49.052Z,28.80
2022-09-01T13:26:15.516Z,28.60
2022-09-01T13:28:41.989Z,28.70
2022-09-01T13:34:10.661Z,28.60
2022-09-01T13:36:44.486Z,28.50
2022-09-01T13:39:13.322Z,28.80
2022-09-01T13:41:39.799Z,28.50
2022-09-01T13:44:06.269Z,28.50
2022-09-01T13:46:32.732Z,28.40
2022-09-01T13:49:03.098Z,28.00
2022-09-01T13:51:29.865Z,27.90
2022-09-01T13:53:56.341Z,27.90
2022-09-01T13:56:22.824Z,27.80
2022-09-01T13:58:49.302Z,28.10
2022-09-01T14:01:15.871Z,28.20
2022-09-01T14:03:42.416Z,28.10
2022-09-01T14:06:08.874Z,28.30
2022-09-01T14:08:35.361Z,28.20
2022-09-01T14:11:01.822Z,28.20
2022-09-01T14:13:28.399Z,28.20
2022-09-01T14:15:54.963Z,27.90
2022-09-01T14:18:21.536Z,28.10
2022-09-01T14:20:48.106Z,28.40
2022-09-01T14:23:14.588Z,28.60
2022-09-01T14:25:41.045Z,28.70
2022-09-01T14:28:07.528Z,28.50
2022-09-01T14:30:33.993Z,28.50
2022-09-01T14:33:00.475Z,28.60
2022-09-01T14:35:26.936Z,28.70
2022-09-01T14:37:53.402Z,28.50
2022-09-01T14:40:20.963Z,28.50
2022-09-01T14:42:47.456Z,28.50
2022-09-01T14:45:13.940Z,28.30
2022-09-01T14:47:40.404Z,28.20
2022-09-01T14:52:38.556Z,28.10
2022-09-01T14:55:05.005Z,28.10
2022-09-01T14:57:37.898Z,28.30
2022-09-01T15:00:04.968Z,28.70
2022-09-01T15:02:31.442Z,28.80
2022-09-01T15:04:57.927Z,28.70
2022-09-01T15:07:24.415Z,28.70
2022-09-01T15:09:50.886Z,28.90
2022-09-01T15:12:17.359Z,29.00
2022-09-01T15:14:43.831Z,29.20
2022-09-01T15:17:10.296Z,29.30
2022-09-01T15:19:36.768Z,29.70
2022-09-01T15:22:03.225Z,29.30
2022-09-01T15:24:29.710Z,29.50
2022-09-01T15:26:56.168Z,29.60
2022-09-01T15:29:22.642Z,29.50
2022-09-01T15:31:49.139Z,30.00
2022-09-01T15:34:15.632Z,29.60
2022-09-01T15:36:42.091Z,29.70
2022-09-01T15:39:08.560Z,29.80
2022-09-01T15:41:35.022Z,29.70
2022-09-01T15:44:01.494Z,29.90
2022-09-01T15:46:28.020Z,30.00
2022-09-01T15:48:54.513Z,30.00
2022-09-01T15:51:22.292Z,30.00
2022-09-01T15:53:48.771Z,30.00
2022-09-01T15:56:15.232Z,30.10
2022-09-01T15:59:00.158Z,29.90
2022-09-01T16:01:27.903Z,29.90
2022-09-01T16:03:54.451Z,29.90
2022-09-01T16:06:20.918Z,29.90
2022-09-01T16:08:47.809Z,30.10
2022-09-01T16:11:14.283Z,30.30
2022-09-01T16:13:40.755Z,30.20
2022-09-01T16:16:07.277Z,30.00
2022-09-01T16:18:33.799Z,30.00
2022-09-01T16:21:00.275Z,29.90
2022-09-01T16:23:26.764Z,30.00
2022-09-01T16:25:53.232Z,30.00
2022-09-01T16:28:19.699Z,30.00
2022-09-01T16:30:46.169Z,30.00
2022-09-01T16:33:12.636Z,30.00
2022-09-01T16:35:39.113Z,30.00
2022-09-01T16:38:05.570Z,30.00
2022-09-01T16:40:32.084Z,30.00
2022-09-01T16:42:58.592Z,30.00
2022-09-01T16:45:25.059Z,29.90
2022-09-01T16:47:52.815Z,29.80
2022-09-01T16:50:19.284Z,29.90
2022-09-01T16:52:45.747Z,30.00
2022-09-01T16:55:12.231Z,30.10
2022-09-01T16:57:38.694Z,30.00
2022-09-01T17:00:05.639Z,30.00
2022-09-01T17:02:32.219Z,30.00
2022-09-01T17:04:58.740Z,30.00
2022-09-01T17:07:26.382Z,30.10
2022-09-01T17:09:56.248Z,30.00
2022-09-01T17:12:22.730Z,30.00
2022-09-01T17:14:49.199Z,30.10
2022-09-01T17:17:15.672Z,30.00
2022-09-01T17:19:42.479Z,30.10
2022-09-01T17:22:08.962Z,30.20
2022-09-01T17:24:35.427Z,30.20
2022-09-01T17:27:03.801Z,30.40
2022-09-01T17:29:30.263Z,30.70
2022-09-01T17:31:56.754Z,31.00
2022-09-01T17:34:23.238Z,31.10
2022-09-01T17:36:49.695Z,31.20
2022-09-01T17:39:16.170Z,31.40
2022-09-01T17:41:42.634Z,31.40
2022-09-01T17:44:09.113Z,31.60
2022-09-01T17:46:35.607Z,31.70
2022-09-01T17:49:02.092Z,31.70
2022-09-01T17:51:28.556Z,31.60
2022-09-01T17:53:55.025Z,31.70
2022-09-01T17:56:21.493Z,31.80
2022-09-01T17:58:47.955Z,32.00
2022-09-01T18:01:14.451Z,32.00
2022-09-01T18:03:40.919Z,32.80
2022-09-01T18:06:07.405Z,32.20
2022-09-01T18:08:33.861Z,32.30
2022-09-01T18:11:00.350Z,32.40
2022-09-01T18:13:42.471Z,32.50
2022-09-01T18:16:13.309Z,32.50
2022-09-01T18:18:39.807Z,32.60
2022-09-01T18:21:06.277Z,32.70
2022-09-01T18:23:32.737Z,32.80
2022-09-01T18:25:59.204Z,32.80
2022-09-01T18:28:25.666Z,32.90
2022-09-01T18:30:52.867Z,33.00
2022-09-01T18:33:19.645Z,33.00
2022-09-01T18:35:46.109Z,33.10
2022-09-01T18:38:12.567Z,33.20
2022-09-01T18:40:39.070Z,33.40
2022-09-01T18:43:05.560Z,33.40
2022-09-01T18:45:32.055Z,33.50
2022-09-01T18:47:58.534Z,33.60
2022-09-01T18:50:26.644Z,33.70
2022-09-01T18:52:53.124Z,33.80
2022-09-01T18:55:19.591Z,33.90
2022-09-01T18:57:46.104Z,34.00
2022-09-01T19:00:17.792Z,34.10
2022-09-01T19:02:45.847Z,34.10
2022-09-01T19:05:12.471Z,34.20
2022-09-01T19:07:38.995Z,34.20
2022-09-01T19:10:05.470Z,34.20
2022-09-01T19:12:31.930Z,34.20
2022-09-01T19:14:58.401Z,34.20
2022-09-01T19:17:24.868Z,34.30
2022-09-01T19:19:51.336Z,34.40
2022-09-01T19:22:17.793Z,34.40
2022-09-01T19:24:44.274Z,34.50
2022-09-01T19:27:10.745Z,34.60
2022-09-01T19:29:37.222Z,34.70
2022-09-01T19:32:03.701Z,34.70
2022-09-01T19:34:30.179Z,34.80
2022-09-01T19:36:56.645Z,34.90
2022-09-01T19:39:23.160Z,35.00
2022-09-01T19:41:49.625Z,35.00
2022-09-01T19:44:16.085Z,35.10
2022-09-01T19:46:42.614Z,35.20
2022-09-01T19:49:09.100Z,35.20
2022-09-01T19:51:36.040Z,35.30
2022-09-01T19:54:02.506Z,35.40
2022-09-01T19:56:28.980Z,35.50
2022-09-01T19:58:55.450Z,35.60
2022-09-01T20:01:22.044Z,35.60
2022-09-01T20:03:48.541Z,35.70
2022-09-01T20:06:15.088Z,35.80
2022-09-01T20:08:41.589Z,35.80
2022-09-01T20:11:08.052Z,35.90
2022-09-01T20:13:34.526Z,35.90
2022-09-01T20:16:01.008Z,36.00
2022-09-01T20:18:27.496Z,36.00
2022-09-01T20:20:53.960Z,36.10
2022-09-01T20:23:20.432Z,36.20
2022-09-01T20:25:46.888Z,36.20
2022-09-01T20:28:13.380Z,36.20
2022-09-01T20:30:39.922Z,36.20
2022-09-01T20:33:06.469Z,36.30
2022-09-01T20:35:36.294Z,36.40
2022-09-01T20:38:05.656Z,36.40
2022-09-01T20:40:32.197Z,36.50
2022-09-01T20:42:58.702Z,36.60
2022-09-01T20:45:25.211Z,36.60
2022-09-01T20:47:51.693Z,36.70
2022-09-01T20:50:18.161Z,36.70
2022-09-01T20:52:44.640Z,36.80
2022-09-01T20:55:11.104Z,36.90
2022-09-01T20:57:37.555Z,37.00
2022-09-01T21:00:04.187Z,37.00
2022-09-01T21:02:30.661Z,37.10
2022-09-01T21:04:57.202Z,37.10
2022-09-01T21:07:26.052Z,37.20
2022-09-01T21:09:54.576Z,37.20
2022-09-01T21:12:21.027Z,37.40
2022-09-01T21:14:47.505Z,37.40
2022-09-01T21:17:15.630Z,37.60
2022-09-01T21:19:44.064Z,37.60
2022-09-01T21:22:10.530Z,37.60
2022-09-01T21:24:36.999Z,37.60
2022-09-01T21:27:03.480Z,37.70
2022-09-01T21:29:29.932Z,37.80
2022-09-01T21:31:56.406Z,37.80
2022-09-01T21:34:22.861Z,37.90
2022-09-01T21:36:49.329Z,38.00
2022-09-01T21:39:20.033Z,38.00
2022-09-01T21:41:46.504Z,38.10
2022-09-01T21:44:12.973Z,38.20
2022-09-01T21:46:39.442Z,38.20
2022-09-01T21:49:05.901Z,38.30
2022-09-01T21:51:32.383Z,38.40
2022-09-01T21:53:58.841Z,38.40
2022-09-01T21:56:25.688Z,38.50
2022-09-01T21:58:52.495Z,38.60
2022-09-01T22:01:19.068Z,38.70
2022-09-01T22:03:45.601Z,38.80
2022-09-01T22:06:12.082Z,38.80
2022-09-01T22:08:38.565Z,38.90
2022-09-01T22:11:05.448Z,39.00
2022-09-01T22:13:31.914Z,39.10
2022-09-01T22:15:58.392Z,39.80
2022-09-01T22:18:24.867Z,39.30
2022-09-01T22:20:51.326Z,39.30
2022-09-01T22:23:17.948Z,39.40
2022-09-01T22:25:44.474Z,39.40
2022-09-01T22:28:10.949Z,39.50
2022-09-01T22:30:37.489Z,39.60
2022-09-01T22:33:04.001Z,39.70
2022-09-01T22:35:30.464Z,39.80
2022-09-01T22:37:56.938Z,39.90
2022-09-01T22:40:23.460Z,39.90
2022-09-01T22:42:49.963Z,40.70
2022-09-01T22:45:17.373Z,40.10
2022-09-01T22:47:43.845Z,40.20
2022-09-01T22:50:10.312Z,40.30
2022-09-01T22:52:36.793Z,40.30
2022-09-01T22:55:03.292Z,40.40
2022-09-01T22:57:29.804Z,40.40
2022-09-01T22:59:56.269Z,41.10
2022-09-01T23:02:22.807Z,40.60
2022-09-01T23:04:49.323Z,40.60
2022-09-01T23:07:15.797Z,40.80
2022-09-01T23:09:42.262Z,40.80
2022-09-01T23:12:08.741Z,40.80
2022-09-01T23:14:35.200Z,40.90
2022-09-01T23:17:01.693Z,41.10
2022-09-01T23:19:28.188Z,41.00
2022-09-01T23:21:54.661Z,41.10
2022-09-01T23:24:21.131Z,41.30
2022-09-01T23:26:47.591Z,41.30
2022-09-01T23:29:14.057Z,41.30
2022-09-01T23:31:40.567Z,41.40
2022-09-01T23:34:07.047Z,41.50
2022-09-01T23:36:33.515Z,41.50
2022-09-01T23:38:59.981Z,41.70
2022-09-01T23:41:26.438Z,41.70
2022-09-01T23:43:52.925Z,41.90
2022-09-01T23:46:19.444Z,42.10
2022-09-01T23:48:45.960Z,42.10
2022-09-01T23:51:12.427Z,42.80
2022-09-01T23:53:38.904Z,42.30
2022-09-01T23:56:05.365Z,42.30
2022-09-01T23:58:31.831Z,42.30
